Nathan Golding — WDD8656 — position and weather

sailwx.info

Track history (hours):
 
Tides and Currents Weather Stations Pressure Air Temp Water Temp Dewpoint Dewpoint Depression Visibility Wind Speed Wind Dir Waves Ship Positions

Nathan Golding

Owner: Golding Barge Line, Inc., VICKSBURG, MS. More information available from US FCC via Universal Licensing System and Coast Guard Vessel Documentation Center.

Last reported at 2018-Feb-20 17:18 UTC. Time now 2018-Feb-20 19:46 UTC.
Position N 29°46' W 095°06'.

Length 23 m; draft 2.4 m.

Type: Towing. MMSI: 367301010.

Date/timePositionNaut miles runAvg speedWind from/ knotsBaromVisibWave heightAir tempDewpointWater temp
2018-Feb-20 17:18N 29°46' W 095°06'6 0.6
2018-Feb-20 07:49N 29°44' W 095°12'0 0.0
2018-Feb-20 07:21N 29°44' W 095°12'3 0.2
2018-Feb-19 17:50N 29°44' W 095°09'3 5.5
2018-Feb-19 17:19N 29°45' W 095°06'1 0.5
2018-Feb-19 15:15N 29°46' W 095°06'0 0.0
2018-Feb-19 14:38N 29°46' W 095°06'0 0.0
2018-Feb-19 14:29N 29°46' W 095°06'0 0.0
2018-Feb-19 14:00N 29°46' W 095°06'0 0.0
2018-Feb-19 13:28N 29°46' W 095°06'0 0.0
2018-Feb-19 12:14N 29°46' W 095°06'0 0.0
2018-Feb-19 09:54N 29°46' W 095°06'0 0.0
2018-Feb-19 09:30N 29°46' W 095°06'0 0.0
2018-Feb-19 09:00N 29°46' W 095°06'0 0.0
2018-Feb-19 08:30N 29°46' W 095°06'0 0.0
2018-Feb-19 07:59N 29°46' W 095°06'0 0.0
2018-Feb-19 07:28N 29°46' W 095°06'0 0.0
2018-Feb-19 06:55N 29°46' W 095°06'0 0.0
2018-Feb-19 06:25N 29°46' W 095°06'0 0.0
2018-Feb-19 06:00N 29°46' W 095°06'0 0.0
2018-Feb-19 05:30N 29°46' W 095°06'0 0.0
2018-Feb-18 16:18N 29°46' W 095°06'0 0.0
2018-Feb-18 14:32N 29°46' W 095°06'0 0.0
2018-Feb-18 03:24N 29°46' W 095°06'4 3.6
2018-Feb-18 02:23N 29°44' W 095°10'0 0.0
2018-Feb-17 23:29N 29°44' W 095°10'0 0.0
2018-Feb-17 22:26N 29°44' W 095°10'0 0.0
2018-Feb-17 21:58N 29°44' W 095°10'0 0.0
2018-Feb-17 21:09N 29°44' W 095°10'0 0.0
2018-Feb-17 20:37N 29°44' W 095°10'0 0.0
2018-Feb-17 20:16N 29°44' W 095°10'0 0.0
2018-Feb-17 20:00N 29°44' W 095°10'0 0.0
2018-Feb-17 07:49N 29°44' W 095°10'0 0.2
2018-Feb-17 07:26N 29°44' W 095°10'0 0.4
2018-Feb-17 06:57N 29°45' W 095°10'4 6.5
2018-Feb-17 06:24N 29°45' W 095°06'3 5.5
2018-Feb-17 05:56N 29°47' W 095°04'2 0.1
2018-Feb-16 15:34N 29°46' W 095°06'0 0.2
2018-Feb-16 15:07N 29°46' W 095°06'0 0.1
2018-Feb-16 14:58N 29°46' W 095°06'0 0.1
2018-Feb-16 14:29N 29°46' W 095°06'16 4.2
2018-Feb-16 10:43N 29°34' W 094°55'16 3.1
2018-Feb-16 05:39N 29°46' W 095°06'1 1.7
2018-Feb-16 05:21N 29°46' W 095°06'2 5.0
2018-Feb-16 04:56N 29°47' W 095°04'0 0.0
2018-Feb-16 04:30N 29°47' W 095°04'0 0.0
2018-Feb-16 04:00N 29°47' W 095°04'0 0.0
2018-Feb-16 02:01N 29°47' W 095°04'0 0.0
2018-Feb-16 01:56N 29°47' W 095°04'0 0.0
2018-Feb-16 01:18N 29°47' W 095°04'27 3.5
2018-Feb-15 17:40N 29°22' W 094°53'0 0.1
2018-Feb-15 16:39N 29°22' W 094°53'0 0.6
2018-Feb-15 16:26N 29°22' W 094°54'0 0.0
2018-Feb-15 15:44N 29°22' W 094°54'0 0.0
2018-Feb-15 13:37N 29°22' W 094°54'0 0.0
2018-Feb-15 10:25N 29°22' W 094°54'0 0.0
2018-Feb-15 09:21N 29°22' W 094°54'0 0.0
2018-Feb-15 08:58N 29°22' W 094°54'0 0.0
2018-Feb-15 08:29N 29°22' W 094°54'0 0.0
2018-Feb-15 08:00N 29°22' W 094°54'0 0.0
2018-Feb-15 07:28N 29°22' W 094°54'0 0.0
2018-Feb-15 06:18N 29°22' W 094°54'0 0.0
2018-Feb-15 05:59N 29°22' W 094°54'0 0.0
2018-Feb-15 05:28N 29°22' W 094°54'0 0.0
2018-Feb-15 05:00N 29°22' W 094°54'0 0.0
2018-Feb-15 04:25N 29°22' W 094°54'0 0.0
2018-Feb-15 03:46N 29°22' W 094°54'0 0.0
2018-Feb-15 03:29N 29°22' W 094°54'1 0.3
2018-Feb-14 23:22N 29°23' W 094°52'2 4.8
2018-Feb-14 22:59N 29°22' W 094°50'10 6.0
2018-Feb-14 21:19N 29°32' W 094°54'3 8.7
2018-Feb-14 21:00N 29°34' W 094°55'4 8.6
2018-Feb-14 20:30N 29°38' W 094°58'5 9.3
2018-Feb-14 20:00N 29°42' W 095°00'9 6.5
2018-Feb-14 18:37N 29°45' W 095°10'0 0.5
2018-Feb-14 18:30N 29°45' W 095°10'0 0.0
2018-Feb-14 17:10N 29°45' W 095°10'0 0.0
2018-Feb-14 16:59N 29°45' W 095°10'6 0.1
2018-Feb-12 21:07N 29°44' W 095°03'2 4.9
2018-Feb-12 20:48N 29°43' W 095°01'1 4.2
2018-Feb-12 20:28N 29°42' W 095°00'3 5.7
2018-Feb-12 20:00N 29°40' W 094°58'3 6.5
2018-Feb-12 19:30N 29°37' W 094°57'3 6.9
2018-Feb-12 19:00N 29°34' W 094°55'3 6.3
2018-Feb-12 18:29N 29°31' W 094°53'  
Track history (hours):
 
Tides and Currents Weather Stations Pressure Air Temp Water Temp Dewpoint Dewpoint Depression Visibility Wind Speed Wind Dir Waves Ship Positions

Nathan Golding

Owner: Golding Barge Line, Inc., VICKSBURG, MS. More information available from US FCC via Universal Licensing System and Coast Guard Vessel Documentation Center.

Last reported at 2018-Feb-20 17:18 UTC. Time now 2018-Feb-20 19:46 UTC.
Position N 29°46' W 095°06'.

Length 23 m; draft 2.4 m.

Type: Towing. MMSI: 367301010.

Date/timePositionNaut miles runAvg speedWind from/ knotsBaromVisibWave heightAir tempDewpointWater temp
2018-Feb-20 17:18N 29°46' W 095°06'6 0.6
2018-Feb-20 07:49N 29°44' W 095°12'0 0.0
2018-Feb-20 07:21N 29°44' W 095°12'3 0.2
2018-Feb-19 17:50N 29°44' W 095°09'3 5.5
2018-Feb-19 17:19N 29°45' W 095°06'1 0.5
2018-Feb-19 15:15N 29°46' W 095°06'0 0.0
2018-Feb-19 14:38N 29°46' W 095°06'0 0.0
2018-Feb-19 14:29N 29°46' W 095°06'0 0.0
2018-Feb-19 14:00N 29°46' W 095°06'0 0.0
2018-Feb-19 13:28N 29°46' W 095°06'0 0.0
2018-Feb-19 12:14N 29°46' W 095°06'0 0.0
2018-Feb-19 09:54N 29°46' W 095°06'0 0.0
2018-Feb-19 09:30N 29°46' W 095°06'0 0.0
2018-Feb-19 09:00N 29°46' W 095°06'0 0.0
2018-Feb-19 08:30N 29°46' W 095°06'0 0.0
2018-Feb-19 07:59N 29°46' W 095°06'0 0.0
2018-Feb-19 07:28N 29°46' W 095°06'0 0.0
2018-Feb-19 06:55N 29°46' W 095°06'0 0.0
2018-Feb-19 06:25N 29°46' W 095°06'0 0.0
2018-Feb-19 06:00N 29°46' W 095°06'0 0.0
2018-Feb-19 05:30N 29°46' W 095°06'0 0.0
2018-Feb-18 16:18N 29°46' W 095°06'0 0.0
2018-Feb-18 14:32N 29°46' W 095°06'0 0.0
2018-Feb-18 03:24N 29°46' W 095°06'4 3.6
2018-Feb-18 02:23N 29°44' W 095°10'0 0.0
2018-Feb-17 23:29N 29°44' W 095°10'0 0.0
2018-Feb-17 22:26N 29°44' W 095°10'0 0.0
2018-Feb-17 21:58N 29°44' W 095°10'0 0.0
2018-Feb-17 21:09N 29°44' W 095°10'0 0.0
2018-Feb-17 20:37N 29°44' W 095°10'0 0.0
2018-Feb-17 20:16N 29°44' W 095°10'0 0.0
2018-Feb-17 20:00N 29°44' W 095°10'0 0.0
2018-Feb-17 07:49N 29°44' W 095°10'0 0.2
2018-Feb-17 07:26N 29°44' W 095°10'0 0.4
2018-Feb-17 06:57N 29°45' W 095°10'4 6.5
2018-Feb-17 06:24N 29°45' W 095°06'3 5.5
2018-Feb-17 05:56N 29°47' W 095°04'2 0.1
2018-Feb-16 15:34N 29°46' W 095°06'0 0.2
2018-Feb-16 15:07N 29°46' W 095°06'0 0.1
2018-Feb-16 14:58N 29°46' W 095°06'0 0.1
2018-Feb-16 14:29N 29°46' W 095°06'16 4.2
2018-Feb-16 10:43N 29°34' W 094°55'16 3.1
2018-Feb-16 05:39N 29°46' W 095°06'1 1.7
2018-Feb-16 05:21N 29°46' W 095°06'2 5.0
2018-Feb-16 04:56N 29°47' W 095°04'0 0.0
2018-Feb-16 04:30N 29°47' W 095°04'0 0.0
2018-Feb-16 04:00N 29°47' W 095°04'0 0.0
2018-Feb-16 02:01N 29°47' W 095°04'0 0.0
2018-Feb-16 01:56N 29°47' W 095°04'0 0.0
2018-Feb-16 01:18N 29°47' W 095°04'27 3.5
2018-Feb-15 17:40N 29°22' W 094°53'0 0.1
2018-Feb-15 16:39N 29°22' W 094°53'0 0.6
2018-Feb-15 16:26N 29°22' W 094°54'0 0.0
2018-Feb-15 15:44N 29°22' W 094°54'0 0.0
2018-Feb-15 13:37N 29°22' W 094°54'0 0.0
2018-Feb-15 10:25N 29°22' W 094°54'0 0.0
2018-Feb-15 09:21N 29°22' W 094°54'0 0.0
2018-Feb-15 08:58N 29°22' W 094°54'0 0.0
2018-Feb-15 08:29N 29°22' W 094°54'0 0.0
2018-Feb-15 08:00N 29°22' W 094°54'0 0.0
2018-Feb-15 07:28N 29°22' W 094°54'0 0.0
2018-Feb-15 06:18N 29°22' W 094°54'0 0.0
2018-Feb-15 05:59N 29°22' W 094°54'0 0.0
2018-Feb-15 05:28N 29°22' W 094°54'0 0.0
2018-Feb-15 05:00N 29°22' W 094°54'0 0.0
2018-Feb-15 04:25N 29°22' W 094°54'0 0.0
2018-Feb-15 03:46N 29°22' W 094°54'0 0.0
2018-Feb-15 03:29N 29°22' W 094°54'1 0.3
2018-Feb-14 23:22N 29°23' W 094°52'2 4.8
2018-Feb-14 22:59N 29°22' W 094°50'10 6.0
2018-Feb-14 21:19N 29°32' W 094°54'3 8.7
2018-Feb-14 21:00N 29°34' W 094°55'4 8.6
2018-Feb-14 20:30N 29°38' W 094°58'5 9.3
2018-Feb-14 20:00N 29°42' W 095°00'9 6.5
2018-Feb-14 18:37N 29°45' W 095°10'0 0.5
2018-Feb-14 18:30N 29°45' W 095°10'0 0.0
2018-Feb-14 17:10N 29°45' W 095°10'0 0.0
2018-Feb-14 16:59N 29°45' W 095°10'6 0.1
2018-Feb-12 21:07N 29°44' W 095°03'2 4.9
2018-Feb-12 20:48N 29°43' W 095°01'1 4.2
2018-Feb-12 20:28N 29°42' W 095°00'3 5.7
2018-Feb-12 20:00N 29°40' W 094°58'3 6.5
2018-Feb-12 19:30N 29°37' W 094°57'3 6.9
2018-Feb-12 19:00N 29°34' W 094°55'3 6.3
2018-Feb-12 18:29N 29°31' W 094°53'  

Dump ship's entire track history